Time;durP1;ratioP1;P1;durP2;ratioP2;P2;SDS_P1;SDS_P2;PMS_P1;PMS_P2;Temp;Humidity;BMP_temperature;BMP_pressure;BME280_temperature;BME280_humidity;BME280_pressure;Samples;Min_cycle;Max_cycle;Signal;HPM_P1;HPM_P2
2023/10/22 00:02:08;;;;;;;0.10;0.10;;;;;;;21.70;48.95;99675.72;5049732;28;20124;-71
2023/10/22 00:04:34;;;;;;;0.10;0.10;;;;;;;21.94;48.90;99669.72;5053664;28;20124;-72
2023/10/22 00:06:59;;;;;;;0.20;0.20;;;;;;;21.92;48.88;99664.59;5069554;28;20066;-70
2023/10/22 00:09:24;;;;;;;0.10;0.10;;;;;;;21.27;50.29;99675.84;5069998;28;20472;-71
2023/10/22 00:11:50;;;;;;;0.10;0.10;;;;;;;22.39;47.53;99682.53;5069625;28;20048;-73
2023/10/22 00:14:15;;;;;;;0.10;0.10;;;;;;;21.90;48.83;99674.25;5068974;28;20089;-71
2023/10/22 00:16:41;;;;;;;0.20;0.20;;;;;;;20.93;51.15;99662.97;5069441;28;20063;-70
2023/10/22 00:19:06;;;;;;;0.10;0.10;;;;;;;21.30;51.18;99674.41;5069640;28;20074;-72
2023/10/22 00:21:32;;;;;;;0.20;0.20;;;;;;;21.15;52.58;99672.19;5069439;28;20047;-71
2023/10/22 00:23:57;;;;;;;0.10;0.10;;;;;;;20.63;54.91;99672.16;5083046;28;20020;-71
2023/10/22 00:26:23;;;;;;;0.20;0.20;;;;;;;20.94;54.61;99674.72;5073580;28;20040;-72
2023/10/22 00:28:48;;;;;;;0.10;0.10;;;;;;;20.56;56.46;99682.72;5069222;28;20389;-72
2023/10/22 00:31:13;;;;;;;0.13;0.13;;;;;;;20.33;56.98;99681.22;5069300;28;20442;-72
2023/10/22 00:33:39;;;;;;;0.10;0.10;;;;;;;20.24;58.15;99676.88;5069012;28;20053;-72
2023/10/22 00:36:04;;;;;;;0.10;0.10;;;;;;;21.07;55.97;99673.75;5069791;28;20029;-72
2023/10/22 00:38:30;;;;;;;0.20;0.20;;;;;;;20.47;58.05;99678.38;5069028;28;20051;-72
2023/10/22 00:40:55;;;;;;;0.10;0.10;;;;;;;20.92;56.31;99679.69;5068983;28;20043;-72
2023/10/22 00:43:21;;;;;;;0.20;0.20;;;;;;;21.07;56.04;99681.19;5069162;28;20040;-72
2023/10/22 00:45:47;;;;;;;0.20;0.20;;;;;;;20.97;56.79;99674.88;5068208;28;20024;-73
2023/10/22 00:48:14;;;;;;;0.20;0.20;;;;;;;20.78;57.17;99679.03;5069667;28;20060;-73
2023/10/22 00:50:40;;;;;;;0.10;0.10;;;;;;;19.63;61.35;99684.00;5068947;28;20559;-71
2023/10/22 00:53:07;;;;;;;0.10;0.10;;;;;;;20.74;57.88;99680.81;5069017;28;20442;-71
2023/10/22 00:55:36;;;;;;;0.10;0.10;;;;;;;19.75;60.74;99686.91;5034563;28;20028;-72
2023/10/22 00:58:03;;;;;;;0.20;0.20;;;;;;;19.84;61.42;99695.13;5068784;28;20048;-71
2023/10/22 01:00:28;;;;;;;0.15;0.15;;;;;;;19.82;62.41;99691.94;5069459;28;20024;-71
2023/10/22 01:02:54;;;;;;;0.20;0.20;;;;;;;19.66;63.42;99698.88;5068820;28;20036;-71
2023/10/22 01:05:19;;;;;;;0.20;0.20;;;;;;;19.36;64.01;99684.13;5068950;28;20178;-71
2023/10/22 01:07:46;;;;;;;0.20;0.20;;;;;;;20.41;60.23;99685.91;5068798;28;20029;-71
2023/10/22 01:10:12;;;;;;;0.10;0.10;;;;;;;20.41;60.38;99682.38;5068750;28;20037;-71
2023/10/22 01:12:38;;;;;;;0.20;0.20;;;;;;;20.43;60.27;99680.13;5068523;28;20035;-73
2023/10/22 01:15:04;;;;;;;0.10;0.10;;;;;;;20.07;60.31;99677.59;5068981;28;20047;-72
2023/10/22 01:17:30;;;;;;;0.10;0.10;;;;;;;20.50;59.82;99686.72;5068487;28;20036;-73
2023/10/22 01:19:55;;;;;;;0.15;0.15;;;;;;;20.10;61.54;99691.41;5079465;28;20708;-72
2023/10/22 01:22:21;;;;;;;0.20;0.20;;;;;;;20.14;60.97;99680.66;5057501;28;20037;-72
2023/10/22 01:24:46;;;;;;;0.10;0.10;;;;;;;19.84;62.45;99689.69;5068663;28;20035;-71
2023/10/22 01:27:12;;;;;;;0.20;0.20;;;;;;;20.12;60.57;99678.28;5068888;28;20021;-72
2023/10/22 01:29:37;;;;;;;0.10;0.10;;;;;;;20.73;59.27;99685.50;5068718;28;20046;-71
2023/10/22 01:32:03;;;;;;;0.20;0.20;;;;;;;20.25;60.35;99689.38;5068751;28;20043;-73
2023/10/22 01:34:28;;;;;;;0.20;0.20;;;;;;;19.89;61.74;99689.56;5068314;28;20083;-72
2023/10/22 01:36:53;;;;;;;0.20;0.20;;;;;;;20.50;59.60;99689.44;5068464;28;20036;-71
2023/10/22 01:39:19;;;;;;;0.20;0.20;;;;;;;20.43;59.61;99694.59;5069538;28;20016;-72
2023/10/22 01:41:44;;;;;;;0.10;0.10;;;;;;;20.32;60.33;99687.00;5068229;28;20519;-71
2023/10/22 01:44:10;;;;;;;0.10;0.10;;;;;;;20.43;59.99;99691.84;5050370;28;20098;-72
2023/10/22 01:46:35;;;;;;;0.20;0.20;;;;;;;20.44;59.76;99684.47;5068509;28;20035;-72
2023/10/22 01:49:01;;;;;;;0.10;0.10;;;;;;;20.37;59.25;99690.38;5068407;28;20098;-72
2023/10/22 01:51:27;;;;;;;0.10;0.10;;;;;;;19.58;62.00;99695.00;5068956;28;20083;-72
2023/10/22 01:53:52;;;;;;;0.20;0.20;;;;;;;19.49;63.44;99687.91;5068540;28;20044;-72
2023/10/22 01:56:18;;;;;;;0.20;0.20;;;;;;;19.41;61.97;99694.09;5068056;28;20032;-71
2023/10/22 01:58:44;;;;;;;0.15;0.15;;;;;;;19.50;61.88;99690.31;5071881;28;20070;-72
2023/10/22 02:01:10;;;;;;;0.10;0.10;;;;;;;19.69;61.81;99693.66;5072366;28;20043;-71
2023/10/22 02:03:36;;;;;;;0.10;0.10;;;;;;;19.91;61.28;99685.38;5071950;28;20029;-71
2023/10/22 02:06:02;;;;;;;0.10;0.10;;;;;;;19.46;62.57;99694.78;5072305;28;20036;-72
2023/10/22 02:08:27;;;;;;;0.20;0.20;;;;;;;19.58;62.35;99692.28;5071861;28;20564;-71
2023/10/22 02:10:52;;;;;;;0.20;0.20;;;;;;;19.90;61.33;99688.44;5071972;28;20082;-72
2023/10/22 02:13:18;;;;;;;0.20;0.20;;;;;;;20.22;60.38;99692.75;5071627;28;20035;-72
2023/10/22 02:15:43;;;;;;;0.17;0.17;;;;;;;20.49;58.62;99689.78;5078973;28;20044;-72
2023/10/22 02:18:09;;;;;;;0.10;0.10;;;;;;;20.10;60.62;99685.97;5077890;28;20028;-72
2023/10/22 02:20:34;;;;;;;0.20;0.20;;;;;;;19.88;60.90;99696.13;5071637;28;20053;-72
2023/10/22 02:23:01;;;;;;;0.20;0.20;;;;;;;19.97;60.36;99700.50;5071716;28;20454;-72
2023/10/22 02:25:27;;;;;;;0.10;0.10;;;;;;;19.30;63.36;99704.44;5071777;28;20028;-71
2023/10/22 02:27:53;;;;;;;0.20;0.20;;;;;;;19.60;62.06;99700.94;5071524;28;20033;-71
2023/10/22 02:30:19;;;;;;;0.10;0.10;;;;;;;19.72;61.83;99703.91;5072045;28;20035;-72
2023/10/22 02:32:44;;;;;;;0.10;0.10;;;;;;;18.64;65.98;99715.22;5071586;28;20398;-72
2023/10/22 02:35:10;;;;;;;0.10;0.10;;;;;;;19.65;62.74;99725.38;5071428;28;20036;-72
2023/10/22 02:37:36;;;;;;;0.10;0.10;;;;;;;19.16;64.21;99720.03;5051672;28;20095;-72
2023/10/22 02:40:02;;;;;;;0.20;0.20;;;;;;;19.92;62.48;99721.66;5051626;28;20115;-72
2023/10/22 02:42:27;;;;;;;0.10;0.10;;;;;;;19.58;63.86;99729.63;5051899;28;20495;-72
2023/10/22 02:44:53;;;;;;;0.15;0.15;;;;;;;19.18;65.30;99728.69;5051247;28;20045;-71
2023/10/22 02:47:18;;;;;;;0.10;0.10;;;;;;;19.77;64.00;99730.25;5051427;28;20045;-72
2023/10/22 02:49:43;;;;;;;0.20;0.20;;;;;;;18.69;67.54;99729.50;5051433;28;20048;-71
2023/10/22 02:52:09;;;;;;;0.10;0.10;;;;;;;19.42;65.62;99742.81;5051618;28;20036;-72
2023/10/22 02:54:34;;;;;;;0.10;0.10;;;;;;;18.67;69.12;99741.84;5056101;28;20028;-71
2023/10/22 02:57:00;;;;;;;0.10;0.10;;;;;;;18.48;69.92;99741.13;5072221;28;20025;-71
2023/10/22 02:59:25;;;;;;;0.20;0.20;;;;;;;18.81;68.47;99737.19;5071574;28;20364;-71
2023/10/22 03:01:51;;;;;;;0.10;0.10;;;;;;;18.96;68.34;99745.81;5071161;28;20040;-71
2023/10/22 03:04:16;;;;;;;0.10;0.10;;;;;;;19.35;67.18;99750.63;5071605;28;20134;-71
2023/10/22 03:06:42;;;;;;;0.10;0.10;;;;;;;19.21;67.71;99763.47;5071124;28;20040;-72
2023/10/22 03:09:07;;;;;;;0.10;0.10;;;;;;;18.89;68.87;99759.03;5070833;28;20423;-72
2023/10/22 03:11:33;;;;;;;0.28;0.28;;;;;;;18.70;70.05;99763.00;5074667;28;20059;-72
2023/10/22 03:13:58;;;;;;;0.10;0.10;;;;;;;19.18;68.98;99764.09;5085336;28;20037;-71
2023/10/22 03:16:23;;;;;;;0.10;0.10;;;;;;;19.22;69.14;99767.81;5070608;28;20040;-72
2023/10/22 03:18:50;;;;;;;0.20;0.20;;;;;;;18.23;72.94;99775.06;5071104;28;20061;-71
2023/10/22 03:21:17;;;;;;;0.10;0.10;;;;;;;19.12;69.46;99776.22;5071663;28;20020;-72
2023/10/22 03:23:43;;;;;;;0.10;0.10;;;;;;;18.83;70.72;99773.06;5070797;28;20024;-72
2023/10/22 03:26:11;;;;;;;0.10;0.10;;;;;;;18.91;70.32;99773.13;5053071;28;20201;-72
2023/10/22 03:28:37;;;;;;;0.20;0.20;;;;;;;19.20;68.93;99780.94;5071209;28;20041;-72
2023/10/22 03:31:03;;;;;;;0.20;0.20;;;;;;;18.65;70.56;99777.53;5071167;28;20114;-72
2023/10/22 03:33:29;;;;;;;0.20;0.20;;;;;;;17.93;73.84;99786.50;5071214;28;20016;-72
2023/10/22 03:35:54;;;;;;;0.13;0.13;;;;;;;18.56;71.06;99781.25;5057653;28;20162;-71
2023/10/22 03:38:20;;;;;;;0.20;0.20;;;;;;;18.34;71.66;99788.16;5066061;28;20079;-72
2023/10/22 03:41:09;;;;;;;0.17;0.17;;;;;;;18.55;71.08;99796.78;5070791;28;20051;-71
2023/10/22 03:43:35;;;;;;;0.20;0.20;;;;;;;19.13;70.11;99794.97;5070193;28;20033;-72
2023/10/22 03:46:01;;;;;;;0.20;0.20;;;;;;;18.71;71.45;99797.28;5070573;28;20369;-72
2023/10/22 03:48:27;;;;;;;0.20;0.20;;;;;;;18.34;71.92;99809.94;5070698;28;20671;-72
2023/10/22 03:50:54;;;;;;;0.10;0.10;;;;;;;18.65;70.16;99806.66;5070330;28;20032;-71
2023/10/22 03:53:21;;;;;;;0.20;0.20;;;;;;;18.73;70.36;99809.44;5070001;28;20100;-71
2023/10/22 03:55:47;;;;;;;0.20;0.20;;;;;;;18.27;73.45;99820.41;5069941;28;20036;-71
2023/10/22 03:58:12;;;;;;;0.20;0.20;;;;;;;18.73;71.04;99825.00;5069707;28;20523;-73
2023/10/22 04:00:38;;;;;;;0.10;0.10;;;;;;;18.10;76.16;99824.81;5069763;28;20106;-75
2023/10/22 04:03:04;;;;;;;0.10;0.10;;;;;;;18.60;73.22;99826.59;5055663;28;20095;-75
2023/10/22 04:05:29;;;;;;;0.20;0.20;;;;;;;18.10;73.26;99838.41;5039414;28;20393;-74
2023/10/22 04:07:55;;;;;;;0.20;0.20;;;;;;;18.36;74.60;99834.91;5063510;28;20496;-72
2023/10/22 04:10:20;;;;;;;0.10;0.10;;;;;;;18.04;76.43;99842.31;5072026;28;20032;-72
2023/10/22 04:12:46;;;;;;;0.20;0.20;;;;;;;17.90;76.12;99850.44;5066864;28;20032;-71
2023/10/22 04:15:11;;;;;;;0.20;0.20;;;;;;;17.73;77.43;99858.31;5049857;28;20509;-72
2023/10/22 04:17:37;;;;;;;0.20;0.20;;;;;;;18.25;75.57;99862.59;5066575;28;20049;-71
2023/10/22 04:20:03;;;;;;;0.20;0.20;;;;;;;18.51;73.46;99862.97;5055795;28;20036;-73
2023/10/22 04:22:29;;;;;;;0.20;0.20;;;;;;;18.50;73.59;99864.88;5038825;28;20036;-72
2023/10/22 04:24:54;;;;;;;0.10;0.10;;;;;;;19.09;72.37;99870.22;5069450;28;20040;-72
2023/10/22 04:27:20;;;;;;;0.10;0.10;;;;;;;18.22;75.43;99883.03;5069730;28;20376;-71
2023/10/22 04:29:46;;;;;;;0.10;0.10;;;;;;;18.01;77.49;99878.25;5050769;28;20299;-73
2023/10/22 04:32:14;;;;;;;0.10;0.10;;;;;;;18.15;76.17;99896.22;5049327;28;20060;-72
2023/10/22 04:34:40;;;;;;;0.20;0.20;;;;;;;18.55;74.11;99899.38;5049046;28;20033;-73
2023/10/22 04:37:07;;;;;;;0.30;0.30;;;;;;;17.85;77.82;99910.31;5049337;28;20025;-73
2023/10/22 04:39:32;;;;;;;0.20;0.20;;;;;;;18.14;77.46;99926.44;5049393;28;20024;-70
2023/10/22 04:41:58;;;;;;;0.20;0.20;;;;;;;18.25;77.78;99931.41;5049996;28;20538;-72
2023/10/22 04:44:24;;;;;;;0.10;0.10;;;;;;;18.22;76.63;99944.81;5049655;28;20485;-73
2023/10/22 04:46:51;;;;;;;0.20;0.20;;;;;;;18.31;76.99;99945.72;5049347;28;20079;-72
2023/10/22 04:49:16;;;;;;;0.10;0.10;;;;;;;18.03;78.22;99958.41;5049161;28;20053;-71
2023/10/22 04:51:42;;;;;;;0.10;0.10;;;;;;;18.36;77.65;99970.13;5049227;28;20121;-72
2023/10/22 04:54:07;;;;;;;0.10;0.10;;;;;;;18.31;77.03;99964.78;5049530;28;20440;-72
2023/10/22 04:56:34;;;;;;;0.20;0.20;;;;;;;18.18;77.84;99981.84;5031010;28;20029;-72
2023/10/22 04:58:59;;;;;;;0.20;0.20;;;;;;;18.28;77.31;99978.94;5048741;28;20123;-73
2023/10/22 05:01:25;;;;;;;0.10;0.10;;;;;;;18.12;77.96;99997.41;5048905;28;20408;-72
2023/10/22 05:03:50;;;;;;;0.10;0.10;;;;;;;17.68;79.61;99993.44;5053710;28;20067;-73
2023/10/22 05:06:16;;;;;;;0.20;0.20;;;;;;;16.99;81.65;100023.84;5071126;28;20082;-72
2023/10/22 05:08:41;;;;;;;0.17;0.17;;;;;;;16.91;82.29;100030.69;5050421;28;20025;-71
2023/10/22 05:11:12;;;;;;;0.20;0.20;;;;;;;16.70;82.42;100080.81;5068929;28;20051;-71
2023/10/22 05:13:37;;;;;;;0.15;0.15;;;;;;;17.10;81.42;100047.09;5068860;28;20036;-72
2023/10/22 05:16:03;;;;;;;0.20;0.20;;;;;;;16.86;81.34;100059.78;5068807;28;20044;-72
2023/10/22 05:18:28;;;;;;;0.10;0.10;;;;;;;16.69;81.39;100063.72;5069267;28;20048;-73
2023/10/22 05:21:00;;;;;;;0.10;0.10;;;;;;;16.76;80.32;100068.03;5069084;28;20102;-72
2023/10/22 05:23:26;;;;;;;0.20;0.20;;;;;;;16.66;80.27;100072.44;5068685;28;20543;-72
2023/10/22 05:26:03;;;;;;;0.20;0.20;;;;;;;17.42;77.72;100090.72;5069143;28;20036;-72
2023/10/22 05:28:29;;;;;;;0.20;0.20;;;;;;;16.63;80.24;100100.13;5068508;28;20033;-72
2023/10/22 05:30:54;;;;;;;0.10;0.10;;;;;;;16.74;81.13;100105.47;5068812;28;20040;-73
2023/10/22 05:33:19;;;;;;;0.28;0.28;;;;;;;17.04;79.60;100116.09;5078396;28;20391;-72
2023/10/22 05:35:45;;;;;;;0.20;0.20;;;;;;;16.93;78.65;100126.22;5076458;28;20044;-71
2023/10/22 05:38:10;;;;;;;0.15;0.15;;;;;;;16.67;79.65;100122.88;5053594;28;20024;-71
2023/10/22 05:40:37;;;;;;;0.20;0.20;;;;;;;16.76;80.42;100131.25;5072143;28;20400;-72
2023/10/22 05:43:02;;;;;;;0.10;0.10;;;;;;;16.76;79.32;100135.84;5071977;28;20059;-71
2023/10/22 05:45:28;;;;;;;0.20;0.20;;;;;;;16.47;82.87;100135.75;5073257;28;20058;-73
2023/10/22 05:47:53;;;;;;;0.20;0.20;;;;;;;16.74;81.03;100140.75;5071991;28;20589;-72
2023/10/22 05:50:19;;;;;;;0.13;0.13;;;;;;;16.86;79.45;100154.78;5071978;28;20521;-73
2023/10/22 05:52:44;;;;;;;0.28;0.28;;;;;;;16.92;79.51;100153.66;5071897;28;20150;-73
2023/10/22 05:55:09;;;;;;;0.28;0.28;;;;;;;16.55;80.86;100167.72;5072129;28;20040;-73
2023/10/22 05:57:35;;;;;;;0.20;0.20;;;;;;;17.20;78.42;100159.09;5068999;28;20332;-72
2023/10/22 06:00:00;;;;;;;0.13;0.13;;;;;;;17.22;78.19;100164.25;5073388;28;20035;-71
2023/10/22 06:02:26;;;;;;;0.20;0.20;;;;;;;16.90;78.95;100166.69;5072846;28;20036;-71
2023/10/22 06:04:51;;;;;;;0.10;0.10;;;;;;;17.47;76.08;100172.19;5071602;28;20028;-73
2023/10/22 06:07:16;;;;;;;0.22;0.22;;;;;;;16.57;79.67;100173.69;5071667;28;20188;-73
2023/10/22 06:09:42;;;;;;;0.20;0.20;;;;;;;17.43;75.79;100182.00;5071285;28;20081;-73
2023/10/22 06:12:08;;;;;;;0.10;0.10;;;;;;;17.03;77.42;100191.28;5071906;28;20025;-72
2023/10/22 06:14:35;;;;;;;0.10;0.10;;;;;;;17.31;76.67;100203.28;5071053;28;20075;-73
2023/10/22 06:17:00;;;;;;;0.20;0.20;;;;;;;17.17;76.33;100191.44;5071648;28;20060;-72
2023/10/22 06:19:26;;;;;;;0.20;0.20;;;;;;;17.29;75.88;100205.47;5071205;28;20508;-71
2023/10/22 06:21:51;;;;;;;0.20;0.20;;;;;;;17.15;76.76;100208.03;5071736;28;20032;-72
2023/10/22 06:24:16;;;;;;;0.20;0.20;;;;;;;17.23;75.79;100218.28;5072115;28;20435;-72
2023/10/22 06:26:42;;;;;;;0.30;0.30;;;;;;;17.62;74.07;100223.66;5071192;28;20043;-71
2023/10/22 06:29:07;;;;;;;0.20;0.20;;;;;;;17.43;74.75;100226.25;5071356;28;20404;-73
2023/10/22 06:31:33;;;;;;;0.20;0.20;;;;;;;17.87;74.05;100233.47;5071659;28;20036;-73
2023/10/22 06:33:58;;;;;;;0.20;0.20;;;;;;;17.93;71.83;100235.84;5071368;28;20025;-72
2023/10/22 06:36:25;;;;;;;0.10;0.10;;;;;;;17.93;72.85;100248.63;5071705;28;20024;-72
2023/10/22 06:38:50;;;;;;;0.20;0.20;;;;;;;17.65;74.31;100252.19;5071277;28;20055;-73
2023/10/22 06:41:24;;;;;;;0.10;0.10;;;;;;;17.76;73.25;100256.41;5071043;28;20040;-73
2023/10/22 06:43:50;;;;;;;0.20;0.20;;;;;;;17.53;75.21;100250.63;5069909;28;20173;-73
2023/10/22 06:46:17;;;;;;;0.20;0.20;;;;;;;17.15;76.21;100267.75;5071510;28;20116;-71
2023/10/22 06:48:43;;;;;;;0.10;0.10;;;;;;;18.26;72.15;100273.00;5071195;28;20037;-74
2023/10/22 06:51:15;;;;;;;0.10;0.10;;;;;;;17.58;74.74;100276.97;5071723;28;20020;-74
2023/10/22 06:53:42;;;;;;;0.20;0.20;;;;;;;17.78;73.38;100278.69;5071130;28;20028;-73
2023/10/22 06:56:08;;;;;;;0.10;0.10;;;;;;;17.52;72.37;100303.38;5070798;28;20123;-72
2023/10/22 06:58:36;;;;;;;0.10;0.10;;;;;;;17.69;73.87;100294.78;5080052;28;20043;-74
2023/10/22 07:01:12;;;;;;;0.25;0.25;;;;;;;18.21;72.46;100289.41;5071127;28;20025;-73
2023/10/22 07:03:40;;;;;;;0.10;0.10;;;;;;;18.60;69.76;100304.75;5070924;28;20024;-74
2023/10/22 07:06:06;;;;;;;0.20;0.20;;;;;;;18.73;69.45;100301.34;5071586;28;20021;-71
2023/10/22 07:08:31;;;;;;;0.20;0.20;;;;;;;18.61;69.60;100312.66;5070793;28;20059;-73
2023/10/22 07:10:57;;;;;;;0.20;0.20;;;;;;;18.71;69.57;100311.72;5070392;28;20131;-72
2023/10/22 07:13:24;;;;;;;0.20;0.20;;;;;;;18.62;69.85;100318.88;5070696;28;20029;-73
2023/10/22 07:15:51;;;;;;;0.10;0.10;;;;;;;18.35;69.21;100324.88;5070311;28;20076;-73
2023/10/22 07:18:16;;;;;;;0.20;0.20;;;;;;;18.55;69.64;100330.13;5066895;28;20048;-72
2023/10/22 07:20:42;;;;;;;0.20;0.20;;;;;;;17.64;71.91;100327.44;5073051;28;20039;-73
2023/10/22 07:23:08;;;;;;;0.20;0.20;;;;;;;17.80;73.02;100339.00;5070306;28;20091;-72
2023/10/22 07:25:33;;;;;;;0.10;0.10;;;;;;;17.98;71.84;100344.56;5070388;28;20420;-72
2023/10/22 07:28:00;;;;;;;0.10;0.10;;;;;;;17.54;73.50;100350.09;5071169;28;20044;-72
2023/10/22 07:30:25;;;;;;;0.10;0.10;;;;;;;18.20;70.66;100346.81;5072318;28;20050;-72
2023/10/22 07:32:52;;;;;;;0.20;0.20;;;;;;;18.33;69.90;100348.84;5071198;28;20029;-71
2023/10/22 07:35:18;;;;;;;0.20;0.20;;;;;;;17.91;71.09;100354.94;5071543;28;20066;-72
2023/10/22 07:37:44;;;;;;;0.13;0.13;;;;;;;18.20;71.21;100361.19;5071440;28;20124;-73
2023/10/22 07:40:13;;;;;;;0.15;0.15;;;;;;;18.03;71.01;100365.44;5071068;28;20033;-73
2023/10/22 07:42:42;;;;;;;0.25;0.25;;;;;;;18.53;70.00;100378.59;5070735;28;20086;-72
2023/10/22 07:45:09;;;;;;;0.15;0.15;;;;;;;18.25;70.15;100382.94;5071598;28;20336;-73
2023/10/22 07:47:35;;;;;;;0.20;0.20;;;;;;;18.17;71.19;100378.09;5070779;28;20047;-72
2023/10/22 07:50:01;;;;;;;0.20;0.20;;;;;;;18.19;70.64;100391.41;5071191;28;20512;-73
2023/10/22 07:52:26;;;;;;;0.20;0.20;;;;;;;17.67;72.41;100394.03;5071485;28;20056;-73
2023/10/22 07:54:52;;;;;;;0.20;0.20;;;;;;;18.84;68.56;100398.94;5087656;28;20036;-72
2023/10/22 07:57:18;;;;;;;0.20;0.20;;;;;;;18.95;67.49;100400.41;5071020;28;20036;-72
2023/10/22 07:59:44;;;;;;;0.20;0.20;;;;;;;18.69;68.46;100399.06;5070879;28;20121;-73
2023/10/22 08:02:10;;;;;;;0.20;0.20;;;;;;;18.52;69.34;100411.50;5076965;28;20036;-73
2023/10/22 08:04:37;;;;;;;0.20;0.20;;;;;;;18.55;69.24;100409.06;5079959;28;20040;-74
2023/10/22 08:07:03;;;;;;;0.10;0.10;;;;;;;18.85;67.80;100419.59;5066549;28;20059;-72
2023/10/22 08:09:28;;;;;;;0.10;0.10;;;;;;;19.15;66.76;100418.41;5077292;28;20029;-72
2023/10/22 08:11:54;;;;;;;0.10;0.10;;;;;;;18.14;69.65;100426.81;5061404;28;20374;-72
2023/10/22 08:14:19;;;;;;;0.10;0.10;;;;;;;18.56;70.52;100426.16;5079468;28;20576;-73
2023/10/22 08:16:44;;;;;;;0.20;0.20;;;;;;;18.21;71.10;100440.91;5080829;28;20037;-72
2023/10/22 08:19:10;;;;;;;0.10;0.10;;;;;;;18.32;69.97;100443.22;5078520;28;20028;-72
2023/10/22 08:21:35;;;;;;;0.20;0.20;;;;;;;19.14;68.18;100431.22;5080288;28;20502;-73
2023/10/22 08:24:00;;;;;;;0.10;0.10;;;;;;;18.51;69.07;100439.84;5083353;28;20074;-72
2023/10/22 08:26:27;;;;;;;0.13;0.13;;;;;;;19.04;67.70;100439.53;5072245;28;20046;-72
2023/10/22 08:28:52;;;;;;;0.10;0.10;;;;;;;18.18;70.64;100452.34;5073588;28;20043;-71
2023/10/22 08:31:18;;;;;;;0.10;0.10;;;;;;;18.90;69.46;100449.50;5079671;28;20029;-72
2023/10/22 08:33:43;;;;;;;0.10;0.10;;;;;;;18.70;68.99;100454.34;5080529;28;20028;-72
2023/10/22 08:36:09;;;;;;;0.10;0.10;;;;;;;18.97;68.00;100458.13;5078679;28;20032;-73
2023/10/22 08:38:34;;;;;;;0.20;0.20;;;;;;;19.73;65.56;100454.47;5070513;28;20450;-71
2023/10/22 08:41:06;;;;;;;0.10;0.10;;;;;;;19.02;67.26;100462.72;5069838;28;20140;-72
2023/10/22 08:43:32;;;;;;;0.10;0.10;;;;;;;19.09;68.02;100474.06;5069633;28;20032;-74
2023/10/22 08:45:58;;;;;;;0.20;0.20;;;;;;;19.34;66.97;100478.44;5070043;28;20036;-72
2023/10/22 08:48:24;;;;;;;0.20;0.20;;;;;;;19.82;64.00;100477.22;5051704;28;20419;-73
2023/10/22 08:50:51;;;;;;;0.10;0.10;;;;;;;19.36;65.72;100482.47;5069517;28;20706;-72
2023/10/22 08:53:16;;;;;;;0.10;0.10;;;;;;;19.73;64.92;100484.44;5069757;28;20063;-72
2023/10/22 08:55:46;;;;;;;0.10;0.10;;;;;;;19.90;64.38;100490.19;5069779;28;20040;-73
2023/10/22 08:58:16;;;;;;;0.10;0.10;;;;;;;19.52;65.55;100491.28;5068999;28;20400;-72
2023/10/22 09:00:47;;;;;;;0.10;0.10;;;;;;;19.80;64.95;100496.59;5055146;28;20029;-72
2023/10/22 09:03:17;;;;;;;0.10;0.10;;;;;;;18.86;68.07;100499.38;5057844;28;20020;-72
2023/10/22 09:05:43;;;;;;;0.20;0.20;;;;;;;19.69;64.36;100511.50;5069471;28;20385;-75
2023/10/22 09:08:09;;;;;;;0.20;0.20;;;;;;;19.88;64.54;100515.03;5054816;28;20048;-72
2023/10/22 09:10:36;;;;;;;0.10;0.10;;;;;;;19.05;66.67;100511.13;5069567;28;20812;-72
2023/10/22 09:13:14;;;;;;;0.10;0.10;;;;;;;19.24;66.81;100521.00;5074184;28;20034;-71
2023/10/22 09:15:44;;;;;;;0.22;0.22;;;;;;;18.99;67.42;100526.72;5076478;28;20076;-71
2023/10/22 09:18:10;;;;;;;0.10;0.10;;;;;;;18.47;69.51;100534.03;5085351;28;20024;-72
2023/10/22 09:20:37;;;;;;;0.17;0.17;;;;;;;18.74;68.54;100537.06;5073033;28;20029;-72
2023/10/22 09:23:14;;;;;;;0.20;0.20;;;;;;;20.86;62.87;100527.69;5083352;28;20071;-72
2023/10/22 09:25:41;;;;;;;0.20;0.20;;;;;;;20.43;62.75;100537.16;5072018;28;20074;-72
2023/10/22 09:28:27;;;;;;;0.30;0.30;;;;;;;20.10;63.41;100547.19;5081334;28;20753;-72
2023/10/22 09:31:03;;;;;;;0.20;0.20;;;;;;;20.74;61.65;100546.47;5077171;28;20050;-72
2023/10/22 09:33:39;;;;;;;0.13;0.13;;;;;;;19.95;63.30;100552.88;5080852;28;20088;-72
2023/10/22 09:36:12;;;;;;;0.10;0.10;;;;;;;19.34;66.30;100544.63;5075369;28;20041;-71
2023/10/22 09:38:49;;;;;;;0.17;0.17;;;;;;;19.82;65.02;100550.84;5085725;28;20097;-71
2023/10/22 09:41:25;;;;;;;0.10;0.10;;;;;;;19.82;63.50;100557.13;5059254;28;20414;-71
2023/10/22 09:43:50;;;;;;;0.17;0.17;;;;;;;20.21;62.32;100561.50;5076228;28;20094;-71
2023/10/22 09:46:18;;;;;;;0.20;0.20;;;;;;;19.75;63.36;100567.56;5074168;28;20509;-71
2023/10/22 09:48:47;;;;;;;0.10;0.10;;;;;;;19.08;65.54;100573.22;5066774;28;20077;-71
2023/10/22 09:51:15;;;;;;;0.20;0.20;;;;;;;19.26;65.03;100570.56;5082336;28;20380;-71
2023/10/22 09:53:45;;;;;;;0.30;0.30;;;;;;;19.51;64.08;100577.69;5080785;28;20028;-73
2023/10/22 09:56:13;;;;;;;0.10;0.10;;;;;;;19.49;64.47;100569.00;5073619;28;20040;-71
2023/10/22 09:58:43;;;;;;;0.20;0.20;;;;;;;19.21;64.74;100576.09;5078163;28;20028;-72
2023/10/22 10:01:10;;;;;;;0.10;0.10;;;;;;;19.20;64.86;100579.09;5075701;28;20063;-71
2023/10/22 10:03:37;;;;;;;0.20;0.20;;;;;;;18.87;65.32;100579.97;5078506;28;20485;-73
2023/10/22 10:06:09;;;;;;;0.15;0.15;;;;;;;19.72;64.19;100586.44;5069201;28;20063;-73
2023/10/22 10:08:39;;;;;;;0.20;0.20;;;;;;;20.09;62.33;100589.22;5068734;28;20036;-74
2023/10/22 10:11:08;;;;;;;0.10;0.10;;;;;;;20.21;62.22;100596.97;5068795;28;20074;-71
2023/10/22 10:13:35;;;;;;;0.10;0.10;;;;;;;20.50;61.36;100598.44;5069386;28;20086;-71
2023/10/22 10:16:02;;;;;;;0.20;0.20;;;;;;;20.14;62.38;100600.88;5055788;28;20699;-70
2023/10/22 10:19:00;;;;;;;0.10;0.10;;;;;;;20.60;61.65;100608.44;5043182;28;20063;-71
2023/10/22 10:21:34;;;;;;;0.20;0.20;;;;;;;20.06;61.60;100601.53;4954152;28;20065;-73
2023/10/22 10:24:19;;;;;;;0.20;0.20;;;;;;;20.57;60.98;100607.09;4971599;28;20042;-72
2023/10/22 10:27:11;;;;;;;0.10;0.10;;;;;;;20.26;60.77;100607.84;4971169;28;20074;-73
2023/10/22 10:29:37;;;;;;;0.20;0.20;;;;;;;20.26;62.20;100611.38;4948373;28;20071;-71
2023/10/22 10:32:14;;;;;;;0.10;0.10;;;;;;;20.21;60.52;100613.34;4951055;28;20070;-69
2023/10/22 10:34:41;;;;;;;0.20;0.20;;;;;;;20.28;59.98;100611.09;4951421;29;20484;-70
2023/10/22 10:37:14;;;;;;;0.20;0.20;;;;;;;20.64;59.87;100623.91;4951362;29;20051;-70
2023/10/22 10:39:41;;;;;;;0.20;0.20;;;;;;;20.37;58.97;100621.03;4951146;29;20118;-71
2023/10/22 10:42:07;;;;;;;0.10;0.10;;;;;;;20.38;59.29;100614.50;4959826;28;20039;-70
2023/10/22 10:44:52;;;;;;;0.15;0.15;;;;;;;20.95;57.08;100616.03;4956164;28;20696;-71
2023/10/22 10:47:20;;;;;;;0.20;0.20;;;;;;;21.71;56.69;100599.88;4951500;29;20144;-71
2023/10/22 10:50:05;;;;;;;0.10;0.10;;;;;;;21.41;56.13;100603.19;4951613;29;20668;-70
2023/10/22 10:52:42;;;;;;;0.10;0.10;;;;;;;20.53;58.89;100610.72;4951429;29;20114;-71
2023/10/22 10:55:27;;;;;;;0.15;0.15;;;;;;;19.88;57.69;100629.59;4951584;29;20031;-71
2023/10/22 10:57:54;;;;;;;0.10;0.10;;;;;;;20.29;57.64;100627.16;4966448;28;20061;-71
2023/10/22 11:00:29;;;;;;;0.10;0.10;;;;;;;20.15;57.28;100621.59;5010086;28;20469;-71
2023/10/22 11:02:56;;;;;;;0.10;0.10;;;;;;;19.65;58.84;100632.31;5009750;28;20041;-71
2023/10/22 11:05:37;;;;;;;0.20;0.20;;;;;;;19.61;60.91;100634.00;4999077;28;20046;-71
2023/10/22 11:08:10;;;;;;;0.10;0.10;;;;;;;20.21;60.49;100641.47;5059241;28;20037;-71
2023/10/22 11:10:36;;;;;;;0.13;0.13;;;;;;;19.50;61.10;100646.91;5051946;28;20045;-70
2023/10/22 11:13:06;;;;;;;0.20;0.20;;;;;;;19.35;63.12;100654.44;5051990;28;20040;-72
2023/10/22 11:15:36;;;;;;;0.10;0.10;;;;;;;19.56;62.58;100656.66;5061227;28;20119;-69
2023/10/22 11:18:07;;;;;;;0.20;0.20;;;;;;;19.70;63.26;100652.16;5072098;28;20024;-71
2023/10/22 11:20:34;;;;;;;0.20;0.20;;;;;;;20.72;59.00;100661.47;5070991;28;20440;-71
2023/10/22 11:23:00;;;;;;;0.20;0.20;;;;;;;20.56;59.44;100656.53;5052751;28;20043;-72
2023/10/22 11:25:27;;;;;;;0.20;0.20;;;;;;;20.14;58.99;100652.72;5070931;28;20050;-72
2023/10/22 11:27:53;;;;;;;0.20;0.20;;;;;;;19.29;62.61;100675.44;5070609;28;20456;-72
2023/10/22 11:30:34;;;;;;;0.10;0.10;;;;;;;19.31;62.42;100662.34;5070490;28;20035;-71